createdAt,value
2023-02-11T00:01:17.338Z,0.98
2023-02-11T00:03:44.007Z,0.97
2023-02-11T00:06:11.614Z,0.93
2023-02-11T00:08:39.422Z,0.98
2023-02-11T00:11:06.191Z,0.91
2023-02-11T00:13:32.870Z,0.94
2023-02-11T00:15:59.482Z,0.88
2023-02-11T00:18:26.041Z,0.86
2023-02-11T00:20:52.624Z,0.86
2023-02-11T00:23:19.226Z,0.81
2023-02-11T00:25:46.155Z,0.79
2023-02-11T00:28:13.305Z,0.83
2023-02-11T00:30:40.196Z,0.82
2023-02-11T00:33:06.938Z,0.79
2023-02-11T00:35:33.513Z,0.77
2023-02-11T00:38:00.231Z,0.80
2023-02-11T00:40:26.914Z,0.87
2023-02-11T00:42:53.484Z,0.90
2023-02-11T00:45:21.293Z,0.94
2023-02-11T00:47:48.314Z,1.07
2023-02-11T00:50:14.912Z,1.08
2023-02-11T00:52:41.646Z,1.05
2023-02-11T00:55:08.772Z,1.03
2023-02-11T00:57:35.398Z,1.04
2023-02-11T01:00:02.003Z,0.98
2023-02-11T01:02:28.720Z,1.13
2023-02-11T01:04:55.344Z,1.13
2023-02-11T01:07:21.906Z,1.08
2023-02-11T01:09:48.528Z,1.06
2023-02-11T01:12:15.209Z,1.14
2023-02-11T01:14:41.877Z,1.02
2023-02-11T01:17:08.557Z,1.03
2023-02-11T01:19:37.153Z,1.11
2023-02-11T01:22:05.207Z,1.14
2023-02-11T01:24:32.449Z,1.08
2023-02-11T01:26:59.146Z,1.11
2023-02-11T01:29:25.696Z,1.02
2023-02-11T01:31:52.557Z,1.00
2023-02-11T01:34:19.129Z,0.99
2023-02-11T01:36:45.870Z,0.95
2023-02-11T01:39:12.454Z,0.93
2023-02-11T01:41:39.036Z,0.88
2023-02-11T01:44:24.323Z,0.89
2023-02-11T01:46:51.040Z,0.90
2023-02-11T01:49:28.604Z,0.86
2023-02-11T01:52:03.574Z,0.87
2023-02-11T01:54:53.475Z,0.87
2023-02-11T01:57:25.322Z,0.85
2023-02-11T02:00:10.896Z,0.86
2023-02-11T02:02:54.721Z,0.85
2023-02-11T02:05:35.620Z,0.89
2023-02-11T02:08:29.800Z,0.83
2023-02-11T02:10:58.498Z,0.81
2023-02-11T02:13:25.931Z,0.79
2023-02-11T02:16:06.697Z,0.80
2023-02-11T02:19:02.808Z,0.73
2023-02-11T02:21:56.993Z,0.63
2023-02-11T02:25:01.299Z,0.64
2023-02-11T02:28:01.700Z,0.70
2023-02-11T02:30:36.903Z,0.63
2023-02-11T02:33:22.389Z,0.61
2023-02-11T02:36:09.406Z,0.59
2023-02-11T02:38:54.351Z,0.64
2023-02-11T02:41:29.244Z,0.64
2023-02-11T02:43:56.222Z,0.61
2023-02-11T02:46:26.813Z,0.61
2023-02-11T02:48:54.542Z,0.59
2023-02-11T02:51:58.464Z,0.57
2023-02-11T02:54:34.007Z,0.62
2023-02-11T02:57:43.858Z,0.63
2023-02-11T03:00:31.991Z,0.63
2023-02-11T03:03:16.800Z,0.54
2023-02-11T03:06:18.062Z,0.49
2023-02-11T03:08:57.185Z,0.51
2023-02-11T03:11:25.290Z,0.63
2023-02-11T03:13:54.393Z,0.57
2023-02-11T03:16:25.680Z,0.66
2023-02-11T03:19:24.305Z,0.67
2023-02-11T03:21:53.539Z,0.51
2023-02-11T03:24:30.716Z,0.49
2023-02-11T03:27:03.612Z,0.46
2023-02-11T03:29:43.358Z,0.48
2023-02-11T03:32:25.811Z,0.44
2023-02-11T03:35:11.356Z,0.47
2023-02-11T03:37:51.106Z,0.46
2023-02-11T03:40:22.837Z,0.29
2023-02-11T03:42:56.360Z,0.29
2023-02-11T03:45:25.161Z,0.21
2023-02-11T03:48:01.329Z,0.18
2023-02-11T03:50:31.918Z,0.17
2023-02-11T03:53:00.975Z,0.04
2023-02-11T03:55:29.721Z,0.02
2023-02-11T03:57:56.889Z,0.01
2023-02-11T04:00:34.367Z,-0.02
2023-02-11T04:03:01.183Z,-0.07
2023-02-11T04:05:27.970Z,-0.16
2023-02-11T04:07:54.762Z,-0.15
2023-02-11T04:10:21.446Z,-0.18
2023-02-11T04:12:48.117Z,-0.22
2023-02-11T04:15:14.732Z,-0.17
2023-02-11T04:17:41.783Z,-0.21
2023-02-11T04:20:09.145Z,-0.18
2023-02-11T04:22:36.138Z,-0.21
2023-02-11T04:25:03.929Z,-0.29
2023-02-11T04:27:30.649Z,-0.28
2023-02-11T04:29:57.307Z,-0.30
2023-02-11T04:32:23.927Z,-0.29
2023-02-11T04:34:50.613Z,-0.28
2023-02-11T04:37:17.216Z,-0.21
2023-02-11T04:39:43.827Z,-0.16
2023-02-11T04:42:10.358Z,-0.13
2023-02-11T04:44:36.918Z,-0.09
2023-02-11T04:47:03.694Z,-0.01
2023-02-11T04:49:30.333Z,0.07
2023-02-11T04:51:56.963Z,0.15
2023-02-11T04:54:23.576Z,0.22
2023-02-11T04:56:51.092Z,0.12
2023-02-11T04:59:17.708Z,0.20
2023-02-11T05:01:44.400Z,0.32
2023-02-11T05:04:10.964Z,0.47
2023-02-11T05:06:39.815Z,0.64
2023-02-11T05:09:06.374Z,0.66
2023-02-11T05:11:32.983Z,0.80
2023-02-11T05:13:59.724Z,0.80
2023-02-11T05:16:26.371Z,0.81
2023-02-11T05:18:55.454Z,0.84
2023-02-11T05:21:22.756Z,0.87
2023-02-11T05:23:49.371Z,0.79
2023-02-11T05:26:16.290Z,0.66
2023-02-11T05:28:43.853Z,0.59
2023-02-11T05:31:10.876Z,0.64
2023-02-11T05:33:37.907Z,0.71
2023-02-11T05:36:08.539Z,0.70
2023-02-11T05:38:36.182Z,0.73
2023-02-11T05:41:04.011Z,0.69
2023-02-11T05:43:30.654Z,0.67
2023-02-11T05:45:57.405Z,0.70
2023-02-11T05:48:24.021Z,0.67
2023-02-11T05:50:50.630Z,0.69
2023-02-11T05:53:17.411Z,0.61
2023-02-11T05:55:44.213Z,0.67
2023-02-11T05:58:10.757Z,0.64
2023-02-11T06:00:37.875Z,0.58
2023-02-11T06:03:05.049Z,0.58
2023-02-11T06:05:31.920Z,0.60
2023-02-11T06:07:58.728Z,0.63
2023-02-11T06:10:25.641Z,0.71
2023-02-11T06:12:52.188Z,0.67
2023-02-11T06:15:18.781Z,0.66
2023-02-11T06:17:45.361Z,0.58
2023-02-11T06:20:11.984Z,0.66
2023-02-11T06:22:38.578Z,0.64
2023-02-11T06:25:05.769Z,0.58
2023-02-11T06:27:32.447Z,0.67
2023-02-11T06:29:59.034Z,0.60
2023-02-11T06:32:45.472Z,0.60
2023-02-11T06:35:13.884Z,0.61
2023-02-11T06:37:41.944Z,0.69
2023-02-11T06:40:09.352Z,0.65
2023-02-11T06:42:36.295Z,0.64
2023-02-11T06:45:06.025Z,0.61
2023-02-11T06:47:32.965Z,0.67
2023-02-11T06:49:59.550Z,0.58
2023-02-11T06:52:26.250Z,0.70
2023-02-11T06:54:52.828Z,0.64
2023-02-11T06:57:19.577Z,0.69
2023-02-11T06:59:46.203Z,0.57
2023-02-11T07:02:12.846Z,0.52
2023-02-11T07:04:39.498Z,0.60
2023-02-11T07:07:06.127Z,0.60
2023-02-11T07:09:32.750Z,0.63
2023-02-11T07:11:59.300Z,0.69
2023-02-11T07:14:25.900Z,0.73
2023-02-11T07:16:52.561Z,0.72
2023-02-11T07:19:19.175Z,0.73
2023-02-11T07:21:45.710Z,0.66
2023-02-11T07:24:13.184Z,0.65
2023-02-11T07:26:40.224Z,0.63
2023-02-11T07:29:06.957Z,0.69
2023-02-11T07:31:33.652Z,0.58
2023-02-11T07:34:02.279Z,0.53
2023-02-11T07:36:30.521Z,0.61
2023-02-11T07:38:57.471Z,0.62
2023-02-11T07:41:25.811Z,0.78
2023-02-11T07:43:52.839Z,0.74
2023-02-11T07:46:25.294Z,0.80
2023-02-11T07:48:52.308Z,0.94
2023-02-11T07:51:24.778Z,0.91
2023-02-11T07:53:52.187Z,0.98
2023-02-11T07:56:20.485Z,0.96
2023-02-11T07:58:47.496Z,1.12
2023-02-11T08:01:19.035Z,1.10
2023-02-11T08:03:45.865Z,1.17
2023-02-11T08:06:15.015Z,1.35
2023-02-11T08:08:42.750Z,1.37
2023-02-11T08:11:13.300Z,1.43
2023-02-11T08:13:40.015Z,1.48
2023-02-11T08:16:07.309Z,1.57
2023-02-11T08:18:35.973Z,1.55
2023-02-11T08:21:09.996Z,1.62
2023-02-11T08:23:38.805Z,1.65
2023-02-11T08:26:08.462Z,1.71
2023-02-11T08:28:36.719Z,1.79
2023-02-11T08:31:12.075Z,1.83
2023-02-11T08:33:40.660Z,1.88
2023-02-11T08:36:16.057Z,1.97
2023-02-11T08:38:43.377Z,2.03
2023-02-11T08:41:10.367Z,2.13
2023-02-11T08:43:41.701Z,2.13
2023-02-11T08:46:09.940Z,2.22
2023-02-11T08:48:36.610Z,2.20
2023-02-11T08:51:13.454Z,2.19
2023-02-11T08:53:40.058Z,2.30
2023-02-11T08:56:06.837Z,2.43
2023-02-11T08:58:33.573Z,2.41
2023-02-11T09:01:00.310Z,2.34
2023-02-11T09:03:27.247Z,2.41
2023-02-11T09:05:54.849Z,2.45
2023-02-11T09:08:21.483Z,2.57
2023-02-11T09:10:49.067Z,2.67
2023-02-11T09:13:16.927Z,2.71
2023-02-11T09:15:46.932Z,2.66
2023-02-11T09:18:13.907Z,2.55
2023-02-11T09:20:41.546Z,2.72
2023-02-11T09:23:08.101Z,2.73
2023-02-11T09:25:34.676Z,2.91
2023-02-11T09:28:01.315Z,2.84
2023-02-11T09:30:27.978Z,2.90
2023-02-11T09:32:54.558Z,2.91
2023-02-11T09:35:21.111Z,3.08
2023-02-11T09:37:47.679Z,3.13
2023-02-11T09:40:15.900Z,3.09
2023-02-11T09:42:53.887Z,3.03
2023-02-11T09:45:24.373Z,3.08
2023-02-11T09:48:10.469Z,3.20
2023-02-11T09:50:41.924Z,3.34
2023-02-11T09:53:17.441Z,3.23
2023-02-11T09:55:47.888Z,3.20
2023-02-11T09:58:22.478Z,3.09
2023-02-11T10:01:04.125Z,3.09
2023-02-11T10:03:48.702Z,3.13
2023-02-11T10:06:41.519Z,3.16
2023-02-11T10:09:14.057Z,3.24
2023-02-11T10:12:05.684Z,3.21
2023-02-11T10:14:59.961Z,3.04
2023-02-11T10:17:51.286Z,3.07
2023-02-11T10:20:24.914Z,3.11
2023-02-11T10:22:58.223Z,3.18
2023-02-11T10:25:34.718Z,3.26
2023-02-11T10:28:11.526Z,3.31
2023-02-11T10:30:43.736Z,3.44
2023-02-11T10:33:59.376Z,3.37
2023-02-11T10:36:31.500Z,3.50
2023-02-11T10:39:00.393Z,3.63
2023-02-11T10:41:38.014Z,3.77
2023-02-11T10:44:07.390Z,3.86
2023-02-11T10:46:38.099Z,3.85
2023-02-11T10:49:04.626Z,3.73
2023-02-11T10:51:35.748Z,3.97
2023-02-11T10:54:05.410Z,4.26
2023-02-11T10:56:36.685Z,4.55
2023-02-11T10:59:28.766Z,4.46
2023-02-11T11:02:04.705Z,4.45
2023-02-11T11:04:33.095Z,4.40
2023-02-11T11:07:13.660Z,4.20
2023-02-11T11:09:59.662Z,4.32
2023-02-11T11:12:43.587Z,4.28
2023-02-11T11:15:10.186Z,4.25
2023-02-11T11:17:37.769Z,4.31
2023-02-11T11:20:16.014Z,4.25
2023-02-11T11:22:43.901Z,4.13
2023-02-11T11:25:28.443Z,4.14
2023-02-11T11:27:59.120Z,4.15
2023-02-11T11:30:33.334Z,4.22
2023-02-11T11:33:01.142Z,4.28
2023-02-11T11:35:30.132Z,4.29
2023-02-11T11:38:03.359Z,4.22
2023-02-11T11:40:32.333Z,4.32
2023-02-11T11:43:20.249Z,4.43
2023-02-11T11:45:57.987Z,4.52
2023-02-11T11:48:35.008Z,4.47
2023-02-11T11:51:05.955Z,4.47
2023-02-11T11:53:48.307Z,4.39
2023-02-11T11:56:16.782Z,4.39
2023-02-11T11:58:43.749Z,4.36
2023-02-11T12:01:13.297Z,4.38
2023-02-11T12:03:57.962Z,4.51
2023-02-11T12:06:34.082Z,4.63
2023-02-11T12:09:00.634Z,4.42
2023-02-11T12:12:06.381Z,4.48
2023-02-11T12:14:48.229Z,4.37
2023-02-11T12:17:23.522Z,4.46
2023-02-11T12:20:14.244Z,4.39
2023-02-11T12:22:40.813Z,4.42
2023-02-11T12:25:26.644Z,4.42
2023-02-11T12:28:01.998Z,4.52
2023-02-11T12:30:34.534Z,4.46
2023-02-11T12:33:16.804Z,4.56
2023-02-11T12:35:55.379Z,4.46
2023-02-11T12:38:34.878Z,4.42
2023-02-11T12:41:39.856Z,4.55
2023-02-11T12:44:12.553Z,4.42
2023-02-11T12:47:10.909Z,4.42
2023-02-11T12:50:00.766Z,4.37
2023-02-11T12:52:50.350Z,4.50
2023-02-11T12:55:22.447Z,4.41
2023-02-11T12:57:51.475Z,4.54
2023-02-11T13:00:21.072Z,4.44
2023-02-11T13:03:04.182Z,4.45
2023-02-11T13:05:39.628Z,4.48
2023-02-11T13:08:15.404Z,4.44
2023-02-11T13:10:45.977Z,4.50
2023-02-11T13:13:22.424Z,4.59
2023-02-11T13:16:08.051Z,4.42
2023-02-11T13:18:49.720Z,4.46
2023-02-11T13:21:16.455Z,4.51
2023-02-11T13:24:00.984Z,4.54
2023-02-11T13:26:36.366Z,4.47
2023-02-11T13:29:11.594Z,4.44
2023-02-11T13:31:38.276Z,4.36
2023-02-11T13:34:23.948Z,4.37
2023-02-11T13:36:57.955Z,4.40
2023-02-11T13:39:24.928Z,4.39
2023-02-11T13:42:02.689Z,4.39
2023-02-11T13:44:29.526Z,4.42
2023-02-11T13:47:02.418Z,4.51
2023-02-11T13:49:36.720Z,4.62
2023-02-11T13:52:16.526Z,4.68
2023-02-11T13:54:51.115Z,4.54
2023-02-11T13:57:20.793Z,4.50
2023-02-11T14:00:10.787Z,4.63
2023-02-11T14:02:56.199Z,4.70
2023-02-11T14:06:24.075Z,4.71
2023-02-11T14:09:02.530Z,4.86
2023-02-11T14:11:41.717Z,4.86
2023-02-11T14:14:34.987Z,4.89
2023-02-11T14:17:07.791Z,4.86
2023-02-11T14:19:34.370Z,4.97
2023-02-11T14:22:09.890Z,4.88
2023-02-11T14:24:36.372Z,4.93
2023-02-11T14:27:26.171Z,4.94
2023-02-11T14:29:58.694Z,4.92
2023-02-11T14:32:43.690Z,4.90
2023-02-11T14:35:22.874Z,4.92
2023-02-11T14:38:13.880Z,4.98
2023-02-11T14:41:06.409Z,4.92
2023-02-11T14:43:43.226Z,4.77
2023-02-11T14:46:10.165Z,4.86
2023-02-11T14:48:39.165Z,5.06
2023-02-11T14:51:10.631Z,5.05
2023-02-11T14:53:40.858Z,5.11
2023-02-11T14:56:20.209Z,5.08
2023-02-11T14:58:49.438Z,5.03
2023-02-11T15:01:40.514Z,5.10
2023-02-11T15:04:32.555Z,5.19
2023-02-11T15:07:05.325Z,5.24
2023-02-11T15:09:38.567Z,5.18
2023-02-11T15:12:12.028Z,5.19
2023-02-11T15:14:41.143Z,5.23
2023-02-11T15:17:09.409Z,5.19
2023-02-11T15:19:41.150Z,5.16
2023-02-11T15:22:22.173Z,5.15
2023-02-11T15:25:15.005Z,5.14
2023-02-11T15:27:47.098Z,5.14
2023-02-11T15:30:22.853Z,5.02
2023-02-11T15:33:02.772Z,5.14
2023-02-11T15:35:39.822Z,5.10
2023-02-11T15:38:07.727Z,5.06
2023-02-11T15:40:37.331Z,5.10
2023-02-11T15:43:06.585Z,5.16
2023-02-11T15:45:38.553Z,5.24
2023-02-11T15:48:08.024Z,5.23
2023-02-11T15:50:37.249Z,5.24
2023-02-11T15:53:19.611Z,5.26
2023-02-11T15:55:48.917Z,5.22
2023-02-11T15:58:15.591Z,5.26
2023-02-11T16:00:48.292Z,5.25
2023-02-11T16:03:24.059Z,5.17
2023-02-11T16:05:51.658Z,5.16
2023-02-11T16:08:24.804Z,5.16
2023-02-11T16:11:08.545Z,5.14
2023-02-11T16:13:45.805Z,5.16
2023-02-11T16:16:22.122Z,5.14
2023-02-11T16:19:06.018Z,5.12
2023-02-11T16:21:42.462Z,5.05
2023-02-11T16:24:23.697Z,5.04
2023-02-11T16:26:56.703Z,5.08
2023-02-11T16:29:29.413Z,5.05
2023-02-11T16:32:08.263Z,5.08
2023-02-11T16:34:35.167Z,5.04
2023-02-11T16:37:04.672Z,4.99
2023-02-11T16:39:31.372Z,4.93
2023-02-11T16:41:58.406Z,4.88
2023-02-11T16:44:25.327Z,4.87
2023-02-11T16:46:53.416Z,4.89
2023-02-11T16:49:32.667Z,4.90
2023-02-11T16:52:01.377Z,4.90
2023-02-11T16:54:29.095Z,4.80
2023-02-11T16:56:55.949Z,4.81
2023-02-11T16:59:22.901Z,4.83
2023-02-11T17:01:50.395Z,4.73
2023-02-11T17:04:18.986Z,4.73
2023-02-11T17:06:45.822Z,4.70
2023-02-11T17:09:23.998Z,4.74
2023-02-11T17:11:51.168Z,4.73
2023-02-11T17:14:18.626Z,4.76
2023-02-11T17:16:48.305Z,4.81
2023-02-11T17:19:17.705Z,4.81
2023-02-11T17:21:46.781Z,4.71
2023-02-11T17:24:15.039Z,4.68
2023-02-11T17:26:42.849Z,4.68
2023-02-11T17:29:13.038Z,4.69
2023-02-11T17:31:40.676Z,4.69
2023-02-11T17:34:07.776Z,4.70
2023-02-11T17:36:35.026Z,4.73
2023-02-11T17:39:01.883Z,4.79
2023-02-11T17:41:29.397Z,4.87
2023-02-11T17:44:00.087Z,4.85
2023-02-11T17:46:28.652Z,4.66
2023-02-11T17:48:56.011Z,4.78
2023-02-11T17:51:27.296Z,4.69
2023-02-11T17:53:54.553Z,4.70
2023-02-11T17:56:21.257Z,4.81
2023-02-11T17:58:47.906Z,4.75
2023-02-11T18:01:14.543Z,4.65
2023-02-11T18:03:41.354Z,4.82
2023-02-11T18:06:08.494Z,4.89
2023-02-11T18:08:36.114Z,4.91
2023-02-11T18:11:03.123Z,4.82
2023-02-11T18:13:30.201Z,4.77
2023-02-11T18:16:03.565Z,4.77
2023-02-11T18:18:30.800Z,4.79
2023-02-11T18:20:58.929Z,4.83
2023-02-11T18:23:26.075Z,4.85
2023-02-11T18:25:52.985Z,4.72
2023-02-11T18:28:20.138Z,4.74
2023-02-11T18:30:46.789Z,4.73
2023-02-11T18:33:14.423Z,4.73
2023-02-11T18:35:42.038Z,4.81
2023-02-11T18:38:09.667Z,4.70
2023-02-11T18:40:40.417Z,4.81
2023-02-11T18:43:07.424Z,4.85
2023-02-11T18:45:34.201Z,4.88
2023-02-11T18:48:03.588Z,4.88
2023-02-11T18:50:30.413Z,4.79
2023-02-11T18:52:56.936Z,4.83
2023-02-11T18:55:25.905Z,4.81
2023-02-11T18:57:53.072Z,4.81
2023-02-11T19:00:21.083Z,4.83
2023-02-11T19:02:47.735Z,4.79
2023-02-11T19:05:14.395Z,4.84
2023-02-11T19:07:41.068Z,4.86
2023-02-11T19:10:08.219Z,4.91
2023-02-11T19:12:34.930Z,4.90
2023-02-11T19:15:01.619Z,4.90
2023-02-11T19:17:28.276Z,4.93
2023-02-11T19:19:54.816Z,4.85
2023-02-11T19:22:21.325Z,4.86
2023-02-11T19:24:47.934Z,4.86
2023-02-11T19:27:14.517Z,4.84
2023-02-11T19:29:41.070Z,4.84
2023-02-11T19:32:07.754Z,4.85
2023-02-11T19:34:41.125Z,4.86
2023-02-11T19:37:10.853Z,4.89
2023-02-11T19:39:37.402Z,4.92
2023-02-11T19:42:04.255Z,4.90
2023-02-11T19:44:30.894Z,4.89
2023-02-11T19:46:57.669Z,4.86
2023-02-11T19:49:25.982Z,4.89
2023-02-11T19:51:55.377Z,4.86
2023-02-11T19:54:22.497Z,4.86
2023-02-11T19:56:49.164Z,4.89
2023-02-11T19:59:16.122Z,4.94
2023-02-11T20:01:42.807Z,4.87
2023-02-11T20:04:09.423Z,4.88
2023-02-11T20:06:36.010Z,4.87
2023-02-11T20:09:06.499Z,4.81
2023-02-11T20:11:34.238Z,4.85
2023-02-11T20:14:00.850Z,4.83
2023-02-11T20:16:46.145Z,4.73
2023-02-11T20:19:19.126Z,4.76
2023-02-11T20:21:47.736Z,4.77
2023-02-11T20:24:15.598Z,4.81
2023-02-11T20:26:42.571Z,4.86
2023-02-11T20:29:09.390Z,4.86
2023-02-11T20:31:36.400Z,4.84
2023-02-11T20:34:03.590Z,4.87
2023-02-11T20:36:32.722Z,4.86
2023-02-11T20:39:00.517Z,4.80
2023-02-11T20:41:30.885Z,4.76
2023-02-11T20:43:59.584Z,4.70
2023-02-11T20:46:28.791Z,4.63
2023-02-11T20:48:56.693Z,4.66
2023-02-11T20:51:26.401Z,4.61
2023-02-11T20:53:52.963Z,4.69
2023-02-11T20:56:22.765Z,4.74
2023-02-11T20:58:49.782Z,4.77
2023-02-11T21:01:22.846Z,4.76
2023-02-11T21:03:53.759Z,4.73
2023-02-11T21:06:22.326Z,4.77
2023-02-11T21:08:49.006Z,4.73
2023-02-11T21:11:15.704Z,4.75
2023-02-11T21:13:43.140Z,4.69
2023-02-11T21:16:14.873Z,4.74
2023-02-11T21:18:41.698Z,4.70
2023-02-11T21:21:08.682Z,4.73
2023-02-11T21:23:35.868Z,4.69
2023-02-11T21:26:02.559Z,4.71
2023-02-11T21:28:29.127Z,4.72
2023-02-11T21:30:57.362Z,4.67
2023-02-11T21:33:28.275Z,4.66
2023-02-11T21:35:57.027Z,4.60
2023-02-11T21:38:24.882Z,4.63
2023-02-11T21:40:52.007Z,4.50
2023-02-11T21:43:18.937Z,4.54
2023-02-11T21:45:47.458Z,4.62
2023-02-11T21:48:15.141Z,4.65
2023-02-11T21:50:43.327Z,4.65
2023-02-11T21:53:10.174Z,4.59
2023-02-11T21:55:37.183Z,4.60
2023-02-11T21:58:04.290Z,4.56
2023-02-11T22:00:31.294Z,4.53
2023-02-11T22:02:57.919Z,4.50
2023-02-11T22:05:24.580Z,4.55
2023-02-11T22:07:51.324Z,4.41
2023-02-11T22:10:19.060Z,4.30
2023-02-11T22:12:46.034Z,4.38
2023-02-11T22:15:13.204Z,4.38
2023-02-11T22:17:39.821Z,4.40
2023-02-11T22:20:07.715Z,4.41
2023-02-11T22:22:35.344Z,4.49
2023-02-11T22:25:02.232Z,4.45
2023-02-11T22:27:29.004Z,4.54
2023-02-11T22:29:55.523Z,4.21
2023-02-11T22:32:22.107Z,4.27
2023-02-11T22:34:49.516Z,4.30
2023-02-11T22:37:17.405Z,4.19
2023-02-11T22:39:44.053Z,4.31
2023-02-11T22:42:10.608Z,4.27
2023-02-11T22:44:37.549Z,4.32
2023-02-11T22:47:04.213Z,4.39
2023-02-11T22:49:33.218Z,4.22
2023-02-11T22:52:00.351Z,4.30
2023-02-11T22:54:27.633Z,4.40
2023-02-11T22:56:54.180Z,4.42
2023-02-11T22:59:21.261Z,4.25
2023-02-11T23:01:49.013Z,4.26
2023-02-11T23:04:17.081Z,4.25
2023-02-11T23:06:43.899Z,4.35
2023-02-11T23:09:12.471Z,4.40
2023-02-11T23:11:39.396Z,4.16
2023-02-11T23:14:06.058Z,4.19
2023-02-11T23:16:34.115Z,4.08
2023-02-11T23:19:04.018Z,4.15
2023-02-11T23:21:32.377Z,4.30
2023-02-11T23:24:01.982Z,4.20
2023-02-11T23:26:29.250Z,4.23
2023-02-11T23:28:57.236Z,4.29
2023-02-11T23:31:37.704Z,4.31
2023-02-11T23:34:04.550Z,4.28
2023-02-11T23:36:31.662Z,4.35
2023-02-11T23:38:58.260Z,4.18
2023-02-11T23:41:25.077Z,4.22
2023-02-11T23:43:54.169Z,4.08
2023-02-11T23:46:24.725Z,4.21
2023-02-11T23:48:51.870Z,4.17
2023-02-11T23:51:19.996Z,4.23
2023-02-11T23:53:46.776Z,4.26
2023-02-11T23:56:21.604Z,4.10
2023-02-11T23:58:49.933Z,4.00
